createdAt,value
2022-09-26T00:00:49.437Z,14.75
2022-09-26T00:03:16.211Z,16.30
2022-09-26T00:05:42.989Z,12.93
2022-09-26T00:08:09.781Z,14.30
2022-09-26T00:10:36.657Z,13.90
2022-09-26T00:13:03.468Z,13.30
2022-09-26T00:15:30.238Z,14.40
2022-09-26T00:20:24.962Z,15.68
2022-09-26T00:22:51.656Z,16.85
2022-09-26T00:25:19.409Z,12.55
2022-09-26T00:27:46.143Z,14.07
2022-09-26T00:30:13.088Z,14.65
2022-09-26T00:32:40.009Z,15.23
2022-09-26T00:35:07.293Z,18.08
2022-09-26T00:37:36.847Z,18.23
2022-09-26T00:40:04.177Z,16.98
2022-09-26T00:42:30.899Z,17.58
2022-09-26T00:44:57.688Z,18.42
2022-09-26T00:47:45.471Z,17.27
2022-09-26T00:50:20.248Z,17.13
2022-09-26T00:52:54.003Z,18.90
2022-09-26T00:55:25.561Z,18.63
2022-09-26T00:58:04.551Z,20.85
2022-09-26T01:00:31.707Z,18.13
2022-09-26T01:02:58.897Z,18.67
2022-09-26T01:05:26.349Z,19.98
2022-09-26T01:07:56.104Z,20.67
2022-09-26T01:10:24.612Z,21.80
2022-09-26T01:12:52.426Z,18.42
2022-09-26T01:15:19.497Z,18.35
2022-09-26T01:17:46.792Z,17.25
2022-09-26T01:20:38.934Z,17.02
2022-09-26T01:23:17.814Z,17.77
2022-09-26T01:26:03.104Z,19.20
2022-09-26T01:28:48.511Z,17.50
2022-09-26T01:31:43.240Z,19.17
2022-09-26T01:34:36.349Z,17.98
2022-09-26T01:37:32.032Z,18.48
2022-09-26T01:40:14.101Z,15.10
2022-09-26T01:45:38.974Z,16.40
2022-09-26T01:48:17.033Z,14.48
2022-09-26T01:50:47.414Z,16.13
2022-09-26T01:53:36.945Z,14.48
2022-09-26T01:56:14.740Z,16.40
2022-09-26T01:58:53.301Z,15.40
2022-09-26T02:01:23.425Z,16.30
2022-09-26T02:03:54.694Z,15.57
2022-09-26T02:06:28.557Z,15.45
2022-09-26T02:09:09.424Z,14.48
2022-09-26T02:11:41.670Z,14.35
2022-09-26T02:14:20.131Z,14.13
2022-09-26T02:16:49.873Z,13.57
2022-09-26T02:19:29.778Z,15.95
2022-09-26T02:21:59.066Z,14.45
2022-09-26T02:24:26.053Z,15.85
2022-09-26T02:26:56.381Z,14.35
2022-09-26T02:29:23.322Z,17.95
2022-09-26T02:32:05.817Z,16.25
2022-09-26T02:34:33.220Z,15.88
2022-09-26T02:37:01.306Z,12.65
2022-09-26T02:39:28.255Z,19.92
2022-09-26T02:42:21.694Z,17.05
2022-09-26T02:45:26.262Z,13.65
2022-09-26T02:48:12.511Z,15.25
2022-09-26T02:51:03.814Z,16.33
2022-09-26T02:53:33.273Z,18.83
2022-09-26T02:56:50.983Z,18.38
2022-09-26T02:59:36.904Z,16.08
2022-09-26T03:02:19.154Z,16.88
2022-09-26T03:07:23.195Z,16.77
2022-09-26T03:09:53.119Z,15.65
2022-09-26T03:12:21.224Z,17.42
2022-09-26T03:14:49.583Z,19.85
2022-09-26T03:17:19.065Z,16.15
2022-09-26T03:19:50.873Z,19.65
2022-09-26T03:22:17.708Z,20.30
2022-09-26T03:24:46.084Z,16.50
2022-09-26T03:27:14.813Z,19.08
2022-09-26T03:29:41.898Z,17.90
2022-09-26T03:32:08.812Z,16.08
2022-09-26T03:34:39.841Z,15.00
2022-09-26T03:37:07.235Z,15.18
2022-09-26T03:39:34.259Z,16.25
2022-09-26T03:42:02.125Z,15.48
2022-09-26T03:44:29.861Z,16.70
2022-09-26T03:46:56.826Z,17.13
2022-09-26T03:49:23.770Z,18.58
2022-09-26T03:51:50.566Z,19.25
2022-09-26T03:54:17.399Z,16.60
2022-09-26T03:56:45.025Z,16.45
2022-09-26T03:59:11.967Z,17.75
2022-09-26T04:01:38.852Z,16.88
2022-09-26T04:04:05.618Z,16.25
2022-09-26T04:06:32.490Z,17.23
2022-09-26T04:08:59.542Z,17.00
2022-09-26T04:11:26.320Z,15.10
2022-09-26T04:13:54.102Z,16.35
2022-09-26T04:16:23.834Z,16.42
2022-09-26T04:18:56.724Z,17.55
2022-09-26T04:21:24.766Z,17.73
2022-09-26T04:23:53.420Z,15.50
2022-09-26T04:26:23.771Z,18.30
2022-09-26T04:28:54.849Z,16.85
2022-09-26T04:31:23.262Z,14.73
2022-09-26T04:33:51.037Z,13.00
2022-09-26T04:36:18.375Z,12.43
2022-09-26T04:38:45.346Z,14.75
2022-09-26T04:41:18.577Z,14.73
2022-09-26T04:43:45.985Z,12.15
2022-09-26T04:46:20.849Z,14.23
2022-09-26T04:48:50.529Z,13.73
2022-09-26T04:51:19.464Z,13.73
2022-09-26T04:53:46.778Z,17.58
2022-09-26T04:56:15.245Z,18.30
2022-09-26T04:58:43.440Z,12.00
2022-09-26T05:01:12.593Z,13.30
2022-09-26T05:03:39.445Z,12.05
2022-09-26T05:06:08.243Z,13.60
2022-09-26T05:08:36.317Z,14.43
2022-09-26T05:11:03.287Z,16.92
2022-09-26T05:13:30.322Z,14.35
2022-09-26T05:15:59.927Z,14.75
2022-09-26T05:18:28.123Z,13.57
2022-09-26T05:20:57.418Z,13.95
2022-09-26T05:23:45.571Z,13.73
2022-09-26T05:26:34.940Z,12.60
2022-09-26T05:29:16.810Z,12.98
2022-09-26T05:31:44.735Z,10.55
2022-09-26T05:34:19.183Z,12.57
2022-09-26T05:36:54.008Z,14.18
2022-09-26T05:39:42.596Z,13.30
2022-09-26T05:42:21.392Z,11.32
2022-09-26T05:54:22.153Z,11.57
2022-09-26T05:57:34.707Z,10.95
2022-09-26T06:07:59.220Z,11.73
2022-09-26T06:13:21.459Z,12.45
2022-09-26T06:15:48.508Z,10.75
2022-09-26T06:20:43.336Z,9.48
2022-09-26T06:23:10.087Z,13.57
2022-09-26T06:25:36.842Z,11.35
2022-09-26T06:28:03.625Z,12.60
2022-09-26T06:30:30.572Z,11.95
2022-09-26T06:32:57.914Z,9.30
2022-09-26T06:35:24.650Z,9.15
2022-09-26T06:37:51.717Z,11.00
2022-09-26T06:40:18.627Z,10.07
2022-09-26T06:42:46.811Z,12.20
2022-09-26T06:45:13.950Z,9.02
2022-09-26T06:47:40.682Z,8.63
2022-09-26T06:50:07.983Z,9.25
2022-09-26T06:52:35.084Z,9.27
2022-09-26T06:55:04.040Z,8.98
2022-09-26T06:57:40.073Z,8.90
2022-09-26T07:00:15.939Z,9.00
2022-09-26T07:02:55.884Z,9.27
2022-09-26T07:05:24.417Z,9.32
2022-09-26T07:07:51.455Z,13.27
2022-09-26T07:10:19.464Z,9.77
2022-09-26T07:12:47.695Z,7.20
2022-09-26T07:15:19.210Z,10.18
2022-09-26T07:17:51.174Z,9.18
2022-09-26T07:22:47.565Z,12.00
2022-09-26T07:25:14.517Z,10.55
2022-09-26T07:27:41.827Z,11.45
2022-09-26T07:30:09.455Z,10.85
2022-09-26T07:46:51.441Z,9.55
2022-09-26T07:49:36.732Z,9.77
2022-09-26T07:52:03.522Z,9.75
2022-09-26T07:54:30.278Z,11.48
2022-09-26T07:56:57.194Z,9.30
2022-09-26T07:59:24.047Z,9.80
2022-09-26T08:01:54.543Z,9.63
2022-09-26T08:04:21.425Z,10.45
2022-09-26T08:06:50.102Z,9.27
2022-09-26T08:09:16.975Z,8.77
2022-09-26T08:11:43.979Z,11.07
2022-09-26T08:14:10.976Z,8.35
2022-09-26T08:16:41.473Z,9.40
2022-09-26T08:19:10.773Z,8.82
2022-09-26T08:24:45.668Z,6.88
2022-09-26T08:27:13.313Z,6.85
2022-09-26T08:29:47.740Z,6.32
2022-09-26T08:32:15.087Z,6.40
2022-09-26T08:34:42.469Z,7.82
2022-09-26T08:37:09.487Z,7.93
2022-09-26T08:39:36.586Z,6.25
2022-09-26T08:42:19.383Z,10.25
2022-09-26T08:45:27.952Z,9.27
2022-09-26T08:48:06.436Z,7.30
2022-09-26T08:50:53.618Z,7.13
2022-09-26T08:53:24.903Z,6.85
2022-09-26T08:55:56.939Z,5.55
2022-09-26T08:58:51.916Z,7.43
2022-09-26T09:01:35.874Z,4.50
2022-09-26T09:04:12.848Z,4.70
2022-09-26T09:06:39.630Z,4.68
2022-09-26T09:09:06.929Z,5.00
2022-09-26T09:11:55.807Z,4.97
2022-09-26T09:14:25.463Z,4.25
2022-09-26T09:17:16.204Z,3.88
2022-09-26T09:19:48.960Z,3.53
2022-09-26T09:22:34.310Z,5.22
2022-09-26T09:25:10.355Z,6.05
2022-09-26T09:28:15.620Z,4.82
2022-09-26T09:31:02.252Z,4.95
2022-09-26T09:33:54.645Z,4.30
2022-09-26T09:38:51.016Z,4.45
2022-09-26T09:41:46.583Z,4.88
2022-09-26T09:44:46.706Z,7.45
2022-09-26T09:47:16.228Z,6.88
2022-09-26T09:49:44.521Z,4.90
2022-09-26T09:52:32.531Z,4.90
2022-09-26T09:55:21.158Z,4.88
2022-09-26T09:58:07.039Z,4.20
2022-09-26T10:00:41.706Z,4.57
2022-09-26T10:03:15.787Z,4.68
2022-09-26T10:05:45.334Z,4.32
2022-09-26T10:08:27.826Z,4.43
2022-09-26T10:11:22.395Z,3.63
2022-09-26T10:13:53.698Z,3.60
2022-09-26T10:16:20.727Z,3.88
2022-09-26T10:19:09.281Z,3.50
2022-09-26T10:21:46.344Z,4.30
2022-09-26T10:24:41.038Z,3.90
2022-09-26T10:27:38.226Z,2.72
2022-09-26T10:30:32.378Z,2.17
2022-09-26T10:33:01.777Z,2.60
2022-09-26T10:35:47.109Z,2.38
2022-09-26T10:38:27.549Z,2.85
2022-09-26T10:41:00.225Z,2.55
2022-09-26T10:43:35.434Z,3.45
2022-09-26T10:46:17.619Z,3.35
2022-09-26T10:48:52.006Z,4.70
2022-09-26T10:51:32.625Z,3.25
2022-09-26T10:54:09.356Z,4.05
2022-09-26T10:56:43.556Z,4.80
2022-09-26T10:59:13.737Z,3.60
2022-09-26T11:01:48.704Z,4.35
2022-09-26T11:04:41.029Z,3.53
2022-09-26T11:09:38.385Z,3.60
2022-09-26T11:12:23.831Z,3.72
2022-09-26T11:14:54.389Z,2.92
2022-09-26T11:17:21.208Z,4.25
2022-09-26T11:20:02.683Z,3.95
2022-09-26T11:22:42.288Z,4.35
2022-09-26T11:25:19.035Z,5.13
2022-09-26T11:28:01.119Z,5.47
2022-09-26T11:30:30.173Z,4.32
2022-09-26T11:33:01.028Z,4.53
2022-09-26T11:35:44.046Z,4.47
2022-09-26T11:38:11.146Z,6.03
2022-09-26T11:41:11.255Z,14.63
2022-09-26T11:43:51.422Z,6.20
2022-09-26T11:46:21.204Z,3.38
2022-09-26T11:49:24.308Z,4.03
2022-09-26T11:52:00.731Z,3.00
2022-09-26T11:54:42.833Z,3.03
2022-09-26T11:59:47.722Z,2.33
2022-09-26T12:02:42.546Z,3.03
2022-09-26T12:05:37.142Z,2.33
2022-09-26T12:08:22.440Z,3.05
2022-09-26T12:11:11.138Z,3.47
2022-09-26T12:14:00.276Z,3.47
2022-09-26T12:19:34.262Z,3.97
2022-09-26T12:22:36.531Z,5.70
2022-09-26T12:25:07.447Z,3.90
2022-09-26T12:27:59.390Z,3.22
2022-09-26T12:30:33.419Z,5.40
2022-09-26T12:33:30.967Z,5.00
2022-09-26T12:36:07.287Z,4.90
2022-09-26T12:38:42.692Z,4.68
2022-09-26T12:41:18.464Z,5.00
2022-09-26T12:43:51.257Z,5.32
2022-09-26T12:46:36.781Z,6.88
2022-09-26T12:49:03.536Z,3.50
2022-09-26T12:51:42.881Z,5.18
2022-09-26T12:54:24.621Z,3.72
2022-09-26T12:57:07.643Z,4.65
2022-09-26T13:00:12.180Z,4.05
2022-09-26T13:02:54.721Z,3.85
2022-09-26T13:05:37.077Z,3.97
2022-09-26T13:08:30.611Z,4.03
2022-09-26T13:11:11.760Z,2.17
2022-09-26T13:13:54.191Z,2.63
2022-09-26T13:17:06.150Z,4.22
2022-09-26T13:20:14.504Z,2.45
2022-09-26T13:22:44.126Z,3.13
2022-09-26T13:25:27.916Z,2.95
2022-09-26T13:28:20.937Z,2.28
2022-09-26T13:31:01.900Z,2.60
2022-09-26T13:33:33.956Z,4.40
2022-09-26T13:38:45.987Z,1.83
2022-09-26T13:41:46.784Z,3.00
2022-09-26T13:44:37.922Z,2.75
2022-09-26T13:47:44.756Z,2.15
2022-09-26T13:50:25.829Z,1.23
2022-09-26T13:53:21.389Z,1.53
2022-09-26T13:56:27.712Z,1.77
2022-09-26T13:59:12.379Z,2.55
2022-09-26T14:02:16.619Z,2.50
2022-09-26T14:04:48.132Z,2.53
2022-09-26T14:07:56.952Z,2.53
2022-09-26T14:10:39.819Z,3.72
2022-09-26T14:13:17.860Z,4.30
2022-09-26T14:15:47.535Z,2.58
2022-09-26T14:18:45.273Z,2.90
2022-09-26T14:21:22.715Z,2.75
2022-09-26T14:24:10.376Z,4.47
2022-09-26T14:26:51.719Z,2.65
2022-09-26T14:29:46.557Z,2.80
2022-09-26T14:32:17.394Z,4.05
2022-09-26T14:34:54.668Z,2.78
2022-09-26T14:37:24.413Z,2.97
2022-09-26T14:40:00.034Z,1.98
2022-09-26T14:42:38.951Z,2.67
2022-09-26T14:45:17.844Z,3.35
2022-09-26T14:47:49.161Z,4.60
2022-09-26T14:50:24.717Z,2.72
2022-09-26T14:53:02.790Z,2.10
2022-09-26T14:55:31.367Z,4.60
2022-09-26T14:58:29.185Z,3.80
2022-09-26T15:00:56.224Z,2.58
2022-09-26T15:03:24.158Z,4.07
2022-09-26T15:05:51.029Z,3.53
2022-09-26T15:08:27.241Z,4.65
2022-09-26T15:10:57.242Z,2.85
2022-09-26T15:13:29.519Z,2.78
2022-09-26T15:16:19.352Z,2.92
2022-09-26T15:19:15.307Z,4.90
2022-09-26T15:21:55.738Z,2.83
2022-09-26T15:24:33.260Z,4.53
2022-09-26T15:27:19.236Z,2.35
2022-09-26T15:29:51.311Z,1.95
2022-09-26T15:32:26.320Z,3.15
2022-09-26T15:34:54.217Z,4.07
2022-09-26T15:37:33.551Z,2.85
2022-09-26T15:40:21.622Z,2.50
2022-09-26T15:43:02.877Z,3.38
2022-09-26T15:45:48.619Z,2.67
2022-09-26T15:48:29.117Z,2.95
2022-09-26T15:50:58.683Z,3.45
2022-09-26T15:53:40.231Z,3.78
2022-09-26T15:56:41.233Z,4.70
2022-09-26T15:59:14.932Z,3.47
2022-09-26T16:01:44.658Z,2.08
2022-09-26T16:04:23.668Z,1.45
2022-09-26T16:07:05.230Z,2.55
2022-09-26T16:09:33.226Z,2.90
2022-09-26T16:12:04.135Z,1.35
2022-09-26T16:14:41.585Z,2.13
2022-09-26T16:17:57.288Z,3.00
2022-09-26T16:20:29.528Z,2.95
2022-09-26T16:23:04.045Z,3.50
2022-09-26T16:25:40.452Z,1.70
2022-09-26T16:28:10.406Z,1.80
2022-09-26T16:30:42.833Z,1.88
2022-09-26T16:33:09.764Z,2.55
2022-09-26T16:35:43.937Z,0.75
2022-09-26T16:38:27.213Z,2.75
2022-09-26T16:41:08.612Z,1.75
2022-09-26T16:43:37.452Z,2.33
2022-09-26T16:46:09.270Z,1.48
2022-09-26T16:51:21.355Z,3.67
2022-09-26T16:54:01.427Z,2.33
2022-09-26T16:56:28.448Z,2.75
2022-09-26T16:59:01.091Z,2.13
2022-09-26T17:01:47.689Z,1.50
2022-09-26T17:04:19.553Z,2.42
2022-09-26T17:06:47.357Z,3.75
2022-09-26T17:09:15.986Z,3.95
2022-09-26T17:11:47.282Z,2.22
2022-09-26T17:14:17.046Z,1.85
2022-09-26T17:16:51.836Z,2.08
2022-09-26T17:19:18.694Z,2.72
2022-09-26T17:21:47.283Z,3.78
2022-09-26T17:24:28.209Z,11.05
2022-09-26T17:27:04.690Z,10.73
2022-09-26T17:29:40.028Z,4.57
2022-09-26T17:32:15.368Z,5.05
2022-09-26T17:34:42.353Z,2.53
2022-09-26T17:37:11.406Z,5.40
2022-09-26T17:39:38.224Z,4.47
2022-09-26T17:42:04.961Z,3.40
2022-09-26T17:44:32.837Z,4.38
2022-09-26T17:47:00.139Z,2.72
2022-09-26T17:49:31.729Z,3.88
2022-09-26T17:52:01.007Z,5.75
2022-09-26T17:54:37.680Z,5.03
2022-09-26T17:57:08.033Z,5.68
2022-09-26T17:59:35.110Z,4.88
2022-09-26T18:02:23.433Z,4.55
2022-09-26T18:04:53.289Z,5.80
2022-09-26T18:07:22.121Z,5.55
2022-09-26T18:09:51.294Z,5.75
2022-09-26T18:12:24.970Z,4.90
2022-09-26T18:14:52.091Z,4.82
2022-09-26T18:19:54.221Z,5.10
2022-09-26T18:22:27.766Z,8.13
2022-09-26T18:25:04.250Z,5.55
2022-09-26T18:27:33.088Z,4.55
2022-09-26T18:30:00.094Z,5.97
2022-09-26T18:32:33.588Z,5.38
2022-09-26T18:35:01.040Z,5.30
2022-09-26T18:37:29.270Z,6.43
2022-09-26T18:40:00.151Z,4.35
2022-09-26T18:42:30.051Z,4.88
2022-09-26T18:45:05.601Z,7.95
2022-09-26T18:47:44.570Z,5.70
2022-09-26T18:50:34.302Z,4.72
2022-09-26T18:53:01.042Z,5.63
2022-09-26T18:55:46.467Z,4.80
2022-09-26T18:58:24.036Z,7.75
2022-09-26T19:00:57.987Z,5.75
2022-09-26T19:03:29.587Z,5.57
2022-09-26T19:06:01.261Z,4.88
2022-09-26T19:08:41.572Z,5.13
2022-09-26T19:11:14.570Z,5.28
2022-09-26T19:13:43.054Z,5.22
2022-09-26T19:16:10.141Z,4.97
2022-09-26T19:18:37.040Z,5.35
2022-09-26T19:21:06.895Z,5.35
2022-09-26T19:23:36.662Z,6.45
2022-09-26T19:26:05.849Z,5.75
2022-09-26T19:28:35.923Z,7.10
2022-09-26T19:31:04.061Z,7.10
2022-09-26T19:33:31.024Z,5.90
2022-09-26T19:35:57.766Z,7.03
2022-09-26T19:38:26.607Z,5.78
2022-09-26T19:40:54.908Z,5.85
2022-09-26T19:43:22.467Z,7.20
2022-09-26T19:45:52.921Z,8.10
2022-09-26T19:48:22.136Z,4.15
2022-09-26T19:50:50.386Z,6.13
2022-09-26T19:53:19.327Z,5.07
2022-09-26T19:55:50.318Z,4.95
2022-09-26T19:58:26.330Z,4.60
2022-09-26T20:00:55.687Z,5.25
2022-09-26T20:03:43.064Z,5.80
2022-09-26T20:06:15.173Z,5.38
2022-09-26T20:08:42.132Z,9.88
2022-09-26T20:11:09.357Z,10.73
2022-09-26T20:13:56.115Z,20.85
2022-09-26T20:16:23.657Z,19.05
2022-09-26T20:18:51.608Z,13.55
2022-09-26T20:21:22.399Z,10.70
2022-09-26T20:23:49.203Z,6.40
2022-09-26T20:26:17.292Z,5.10
2022-09-26T20:28:44.510Z,5.15
2022-09-26T20:31:26.393Z,4.45
2022-09-26T20:33:54.892Z,6.05
2022-09-26T20:36:30.883Z,5.22
2022-09-26T20:39:00.541Z,6.10
2022-09-26T20:41:30.453Z,5.53
2022-09-26T20:44:02.135Z,5.50
2022-09-26T20:46:32.267Z,5.15
2022-09-26T20:49:03.033Z,5.18
2022-09-26T20:51:34.409Z,6.03
2022-09-26T20:54:02.470Z,4.18
2022-09-26T20:56:29.690Z,5.20
2022-09-26T20:58:56.494Z,5.38
2022-09-26T21:01:26.071Z,5.03
2022-09-26T21:03:55.271Z,5.60
2022-09-26T21:06:25.159Z,4.57
2022-09-26T21:08:52.483Z,3.85
2022-09-26T21:11:20.949Z,4.85
2022-09-26T21:13:48.193Z,5.35
2022-09-26T21:16:20.143Z,4.13
2022-09-26T21:21:30.332Z,5.55
2022-09-26T21:23:59.141Z,3.60
2022-09-26T21:26:28.295Z,3.92
2022-09-26T21:28:56.357Z,4.28
2022-09-26T21:31:31.624Z,3.88
2022-09-26T21:33:59.959Z,7.47
2022-09-26T21:36:35.042Z,4.95
2022-09-26T21:39:02.321Z,3.00
2022-09-26T21:41:29.531Z,3.47
2022-09-26T21:44:19.423Z,4.72
2022-09-26T21:46:46.224Z,3.78
2022-09-26T21:49:13.015Z,3.65
2022-09-26T21:51:40.278Z,5.20
2022-09-26T21:54:13.739Z,2.70
2022-09-26T21:56:50.199Z,3.47
2022-09-26T21:59:22.798Z,2.47
2022-09-26T22:01:49.813Z,4.63
2022-09-26T22:04:16.782Z,4.32
2022-09-26T22:06:43.513Z,2.60
2022-09-26T22:09:10.441Z,4.43
2022-09-26T22:11:38.111Z,2.78
2022-09-26T22:14:05.690Z,2.40
2022-09-26T22:16:34.484Z,4.05
2022-09-26T22:19:01.543Z,3.92
2022-09-26T22:21:28.352Z,3.28
2022-09-26T22:23:55.085Z,4.47
2022-09-26T22:26:21.915Z,2.65
2022-09-26T22:28:49.264Z,3.47
2022-09-26T22:31:16.670Z,2.20
2022-09-26T22:33:43.500Z,3.30
2022-09-26T22:36:10.695Z,2.17
2022-09-26T22:38:37.474Z,3.25
2022-09-26T22:41:06.333Z,2.05
2022-09-26T22:43:33.994Z,2.97
2022-09-26T22:46:03.300Z,2.20
2022-09-26T22:48:34.707Z,3.63
2022-09-26T22:51:01.902Z,3.50
2022-09-26T22:53:31.187Z,2.05
2022-09-26T22:55:58.468Z,2.53
2022-09-26T22:58:28.237Z,5.25
2022-09-26T23:00:55.059Z,5.25
2022-09-26T23:03:21.838Z,3.15
2022-09-26T23:05:51.108Z,2.75
2022-09-26T23:08:17.873Z,3.13
2022-09-26T23:10:55.465Z,2.70
2022-09-26T23:13:26.119Z,2.88
2022-09-26T23:15:53.428Z,2.22
2022-09-26T23:18:20.506Z,2.60
2022-09-26T23:20:47.752Z,3.28
2022-09-26T23:23:14.907Z,2.13
2022-09-26T23:25:47.133Z,2.72
2022-09-26T23:28:14.858Z,2.60
2022-09-26T23:30:42.085Z,2.83
2022-09-26T23:33:09.273Z,3.03
2022-09-26T23:35:36.414Z,2.58
2022-09-26T23:38:05.377Z,2.65
2022-09-26T23:40:34.198Z,2.65
2022-09-26T23:43:02.512Z,3.35
2022-09-26T23:45:29.454Z,3.08
2022-09-26T23:47:56.191Z,2.67
2022-09-26T23:50:23.123Z,3.63
2022-09-26T23:52:49.882Z,2.55
2022-09-26T23:55:17.678Z,2.90
2022-09-26T23:57:44.419Z,3.33
